createdAt,value
2022-08-22T00:02:47.158Z,48.90
2022-08-22T00:02:49.863Z,49.26
2022-08-22T00:03:09.862Z,50.26
2022-08-22T00:06:12.674Z,50.06
2022-08-22T00:09:06.459Z,50.23
2022-08-22T00:11:48.435Z,49.94
2022-08-22T00:14:31.817Z,50.17
2022-08-22T00:17:17.153Z,50.33
2022-08-22T00:19:58.485Z,50.45
2022-08-22T00:22:38.537Z,50.55
2022-08-22T00:25:27.603Z,50.67
2022-08-22T00:28:05.210Z,50.06
2022-08-22T00:30:49.308Z,50.28
2022-08-22T00:33:29.053Z,49.99
2022-08-22T00:36:24.176Z,50.05
2022-08-22T00:39:07.350Z,49.96
2022-08-22T00:41:50.669Z,50.10
2022-08-22T00:44:44.976Z,50.39
2022-08-22T00:47:47.231Z,50.52
2022-08-22T00:50:42.917Z,50.67
2022-08-22T00:53:44.177Z,50.44
2022-08-22T00:56:53.161Z,50.76
2022-08-22T00:59:42.576Z,50.43
2022-08-22T01:02:31.837Z,50.38
2022-08-22T01:05:44.507Z,50.96
2022-08-22T01:08:35.100Z,50.36
2022-08-22T01:11:26.323Z,50.74
2022-08-22T01:14:16.564Z,50.76
2022-08-22T01:17:09.458Z,50.67
2022-08-22T01:20:11.583Z,50.48
2022-08-22T01:23:11.237Z,51.41
2022-08-22T01:26:17.139Z,50.78
2022-08-22T01:29:33.327Z,50.88
2022-08-22T01:32:24.445Z,50.67
2022-08-22T01:35:16.260Z,50.73
2022-08-22T01:38:18.096Z,50.94
2022-08-22T01:41:18.094Z,50.83
2022-08-22T01:44:09.666Z,50.76
2022-08-22T01:46:52.594Z,50.61
2022-08-22T01:49:29.122Z,50.73
2022-08-22T01:52:10.119Z,51.15
2022-08-22T01:54:52.202Z,50.70
2022-08-22T01:57:26.253Z,51.27
2022-08-22T02:00:05.152Z,50.78
2022-08-22T02:02:57.777Z,50.83
2022-08-22T02:05:37.187Z,50.63
2022-08-22T02:08:23.158Z,50.89
2022-08-22T02:11:07.132Z,50.70
2022-08-22T02:13:55.536Z,51.13
2022-08-22T02:16:36.628Z,50.73
2022-08-22T02:19:29.525Z,50.92
2022-08-22T02:22:08.185Z,51.52
2022-08-22T02:24:52.221Z,51.16
2022-08-22T02:27:34.773Z,50.79
2022-08-22T02:30:11.347Z,51.15
2022-08-22T02:32:54.558Z,51.08
2022-08-22T02:35:32.232Z,52.23
2022-08-22T02:38:22.385Z,51.15
2022-08-22T02:41:08.424Z,51.39
2022-08-22T02:43:50.580Z,51.29
2022-08-22T02:46:31.171Z,51.21
2022-08-22T02:49:12.976Z,51.32
2022-08-22T02:51:52.960Z,51.60
2022-08-22T02:54:31.407Z,51.50
2022-08-22T02:57:14.279Z,51.34
2022-08-22T03:00:00.103Z,51.37
2022-08-22T03:02:38.948Z,51.30
2022-08-22T03:05:24.945Z,51.38
2022-08-22T03:08:03.362Z,51.41
2022-08-22T03:10:43.361Z,51.72
2022-08-22T03:13:26.726Z,51.84
2022-08-22T03:16:07.768Z,51.40
2022-08-22T03:18:49.303Z,51.66
2022-08-22T03:21:30.538Z,51.58
2022-08-22T03:24:12.798Z,51.52
2022-08-22T03:26:51.562Z,51.57
2022-08-22T03:29:30.564Z,51.87
2022-08-22T03:32:14.528Z,51.53
2022-08-22T03:34:58.518Z,51.63
2022-08-22T03:37:41.079Z,51.78
2022-08-22T03:40:31.528Z,52.31
2022-08-22T03:43:25.702Z,51.66
2022-08-22T03:46:38.211Z,52.09
2022-08-22T03:49:46.832Z,51.70
2022-08-22T03:52:57.952Z,51.59
2022-08-22T03:55:40.534Z,52.53
2022-08-22T03:58:38.289Z,51.93
2022-08-22T04:01:59.105Z,52.23
2022-08-22T04:05:09.730Z,52.09
2022-08-22T04:08:13.060Z,52.62
2022-08-22T04:11:21.523Z,52.59
2022-08-22T04:14:28.707Z,52.34
2022-08-22T04:17:23.251Z,52.40
2022-08-22T04:20:20.904Z,52.35
2022-08-22T04:23:27.589Z,52.46
2022-08-22T04:26:12.104Z,52.43
2022-08-22T04:28:51.111Z,52.79
2022-08-22T04:31:28.688Z,52.02
2022-08-22T04:34:07.283Z,52.55
2022-08-22T04:36:48.142Z,52.56
2022-08-22T04:39:29.036Z,52.42
2022-08-22T04:42:30.805Z,52.28
2022-08-22T04:45:07.052Z,52.44
2022-08-22T04:47:43.956Z,52.50
2022-08-22T04:50:26.226Z,52.53
2022-08-22T04:53:10.505Z,52.41
2022-08-22T04:55:52.811Z,52.53
2022-08-22T04:58:38.747Z,52.19
2022-08-22T05:01:16.633Z,52.26
2022-08-22T05:03:57.364Z,52.23
2022-08-22T05:06:35.229Z,52.34
2022-08-22T05:09:16.453Z,52.47
2022-08-22T05:11:53.333Z,52.96
2022-08-22T05:14:32.227Z,52.50
2022-08-22T05:17:08.487Z,52.73
2022-08-22T05:19:46.516Z,52.90
2022-08-22T05:22:24.214Z,52.84
2022-08-22T05:25:03.558Z,52.88
2022-08-22T05:27:42.033Z,53.11
2022-08-22T05:30:22.278Z,53.22
2022-08-22T05:33:04.622Z,53.08
2022-08-22T05:35:40.843Z,53.23
2022-08-22T05:38:16.960Z,53.11
2022-08-22T05:40:58.713Z,52.83
2022-08-22T05:43:37.142Z,52.93
2022-08-22T05:46:17.503Z,53.34
2022-08-22T05:48:56.489Z,53.33
2022-08-22T05:51:37.868Z,53.02
2022-08-22T05:54:15.812Z,53.13
2022-08-22T05:56:55.548Z,53.15
2022-08-22T05:59:32.168Z,53.12
2022-08-22T06:02:10.572Z,53.17
2022-08-22T06:04:50.093Z,53.16
2022-08-22T06:07:27.439Z,53.21
2022-08-22T06:10:09.687Z,53.33
2022-08-22T06:12:51.261Z,53.33
2022-08-22T06:15:30.528Z,53.45
2022-08-22T06:18:06.298Z,53.29
2022-08-22T06:20:43.994Z,53.39
2022-08-22T06:23:23.880Z,53.35
2022-08-22T06:26:00.697Z,53.28
2022-08-22T06:28:54.611Z,53.12
2022-08-22T06:31:31.999Z,53.67
2022-08-22T06:34:10.165Z,54.27
2022-08-22T06:36:48.732Z,53.43
2022-08-22T06:39:24.544Z,54.45
2022-08-22T06:42:03.357Z,53.62
2022-08-22T06:44:41.976Z,53.64
2022-08-22T06:47:19.052Z,53.69
2022-08-22T06:49:56.436Z,53.22
2022-08-22T06:52:33.922Z,53.95
2022-08-22T06:55:10.260Z,54.20
2022-08-22T06:57:47.470Z,54.19
2022-08-22T07:00:22.442Z,53.56
2022-08-22T07:02:58.737Z,53.64
2022-08-22T07:05:38.355Z,54.56
2022-08-22T07:08:14.799Z,54.30
2022-08-22T07:10:56.413Z,53.93
2022-08-22T07:13:29.268Z,54.28
2022-08-22T07:16:07.751Z,53.84
2022-08-22T07:18:50.010Z,54.73
2022-08-22T07:21:28.921Z,54.62
2022-08-22T07:24:02.808Z,54.98
2022-08-22T07:26:42.241Z,54.54
2022-08-22T07:29:27.764Z,55.07
2022-08-22T07:32:11.537Z,54.63
2022-08-22T07:34:58.041Z,55.03
2022-08-22T07:37:47.014Z,54.53
2022-08-22T07:40:27.092Z,54.17
2022-08-22T07:43:06.175Z,54.27
2022-08-22T07:45:44.422Z,54.76
2022-08-22T07:48:28.055Z,55.12
2022-08-22T07:51:05.239Z,53.82
2022-08-22T07:53:42.590Z,56.45
2022-08-22T07:56:21.641Z,53.20
2022-08-22T07:58:59.646Z,53.12
2022-08-22T08:01:33.327Z,54.04
2022-08-22T08:04:10.175Z,53.79
2022-08-22T08:06:43.025Z,54.89
2022-08-22T08:09:16.998Z,54.28
2022-08-22T08:11:53.451Z,54.74
2022-08-22T08:14:27.552Z,54.28
2022-08-22T08:17:03.964Z,54.22
2022-08-22T08:19:42.064Z,54.69
2022-08-22T08:22:18.607Z,54.76
2022-08-22T08:24:54.970Z,54.33
2022-08-22T08:27:52.583Z,54.57
2022-08-22T08:30:36.614Z,53.67
2022-08-22T08:33:24.803Z,53.26
2022-08-22T08:36:07.951Z,52.68
2022-08-22T08:38:48.135Z,52.11
2022-08-22T08:41:57.938Z,52.19
2022-08-22T08:44:49.803Z,52.59
2022-08-22T08:47:36.182Z,51.20
2022-08-22T08:50:29.083Z,51.16
2022-08-22T08:53:33.049Z,50.68
2022-08-22T08:56:16.606Z,50.57
2022-08-22T08:59:00.200Z,49.40
2022-08-22T09:01:53.400Z,49.64
2022-08-22T09:05:04.875Z,49.19
2022-08-22T09:07:56.913Z,49.84
2022-08-22T09:10:52.824Z,48.78
2022-08-22T09:13:42.814Z,48.49
2022-08-22T09:16:46.202Z,48.11
2022-08-22T09:19:49.651Z,47.16
2022-08-22T09:22:50.200Z,47.87
2022-08-22T09:25:31.996Z,47.31
2022-08-22T09:28:18.167Z,45.65
2022-08-22T09:31:16.925Z,45.90
2022-08-22T09:34:05.956Z,45.34
2022-08-22T09:36:52.958Z,45.12
2022-08-22T09:39:39.127Z,45.31
2022-08-22T09:42:18.548Z,44.71
2022-08-22T09:45:01.186Z,44.75
2022-08-22T09:47:40.018Z,45.49
2022-08-22T09:50:17.614Z,44.77
2022-08-22T09:53:04.829Z,44.31
2022-08-22T09:55:43.801Z,43.55
2022-08-22T09:58:25.779Z,43.16
2022-08-22T10:01:11.355Z,43.62
2022-08-22T10:04:28.917Z,43.76
2022-08-22T10:07:11.692Z,43.55
2022-08-22T10:09:57.112Z,43.47
2022-08-22T10:12:36.542Z,42.47
2022-08-22T10:15:20.252Z,42.18
2022-08-22T10:18:15.852Z,41.93
2022-08-22T10:21:00.345Z,42.50
2022-08-22T10:23:39.570Z,42.35
2022-08-22T10:26:29.185Z,42.55
2022-08-22T10:29:08.935Z,41.65
2022-08-22T10:31:58.865Z,41.47
2022-08-22T10:34:42.700Z,39.53
2022-08-22T10:37:24.106Z,40.92
2022-08-22T10:40:02.682Z,40.88
2022-08-22T10:42:41.774Z,40.29
2022-08-22T10:45:35.489Z,40.57
2022-08-22T10:48:39.728Z,40.68
2022-08-22T10:51:28.892Z,39.12
2022-08-22T10:54:19.934Z,40.23
2022-08-22T10:57:06.649Z,38.86
2022-08-22T10:59:46.291Z,39.97
2022-08-22T11:02:36.592Z,39.24
2022-08-22T11:05:39.475Z,39.40
2022-08-22T11:08:28.572Z,38.19
2022-08-22T11:11:21.540Z,39.41
2022-08-22T11:14:29.024Z,38.17
2022-08-22T11:17:23.636Z,38.04
2022-08-22T11:20:19.496Z,38.39
2022-08-22T11:23:12.888Z,38.91
2022-08-22T11:25:55.143Z,38.14
2022-08-22T11:28:41.254Z,38.76
2022-08-22T11:31:27.500Z,38.35
2022-08-22T11:34:12.079Z,38.33
2022-08-22T11:36:51.609Z,37.90
2022-08-22T11:39:34.983Z,37.08
2022-08-22T11:42:14.268Z,38.60
2022-08-22T11:44:53.795Z,36.29
2022-08-22T11:47:31.559Z,36.42
2022-08-22T11:50:13.835Z,37.09
2022-08-22T11:53:07.825Z,37.51
2022-08-22T11:55:46.549Z,38.03
2022-08-22T11:58:32.861Z,35.83
2022-08-22T12:01:17.043Z,36.67
2022-08-22T12:04:03.495Z,36.07
2022-08-22T12:06:56.428Z,36.21
2022-08-22T12:09:38.844Z,35.46
2022-08-22T12:12:38.464Z,35.96
2022-08-22T12:15:21.656Z,35.09
2022-08-22T12:18:31.892Z,35.11
2022-08-22T12:21:36.858Z,34.52
2022-08-22T12:24:35.653Z,35.03
2022-08-22T12:27:37.658Z,33.26
2022-08-22T12:30:19.964Z,36.07
2022-08-22T12:33:23.538Z,35.83
2022-08-22T12:36:19.359Z,35.43
2022-08-22T12:39:13.393Z,35.08
2022-08-22T12:42:06.984Z,35.39
2022-08-22T12:44:55.713Z,35.04
2022-08-22T12:47:42.191Z,34.94
2022-08-22T12:50:32.350Z,35.26
2022-08-22T12:53:25.724Z,33.85
2022-08-22T12:56:06.274Z,34.61
2022-08-22T12:59:09.143Z,33.10
2022-08-22T13:01:45.125Z,33.88
2022-08-22T13:04:32.427Z,33.91
2022-08-22T13:07:19.030Z,34.23
2022-08-22T13:10:01.738Z,33.93
2022-08-22T13:12:44.331Z,33.39
2022-08-22T13:15:26.634Z,31.13
2022-08-22T13:18:19.197Z,31.70
2022-08-22T13:20:59.236Z,34.98
2022-08-22T13:23:39.927Z,34.21
2022-08-22T13:26:34.030Z,34.52
2022-08-22T13:29:26.156Z,32.83
2022-08-22T13:32:02.094Z,32.60
2022-08-22T13:34:43.551Z,32.34
2022-08-22T13:37:24.789Z,31.93
2022-08-22T13:40:03.008Z,33.54
2022-08-22T13:42:47.875Z,33.55
2022-08-22T13:45:24.878Z,32.51
2022-08-22T13:48:03.630Z,32.83
2022-08-22T13:50:54.131Z,35.70
2022-08-22T13:53:39.217Z,35.02
2022-08-22T13:56:18.593Z,34.31
2022-08-22T13:58:55.823Z,32.34
2022-08-22T14:01:38.828Z,32.91
2022-08-22T14:04:32.292Z,34.89
2022-08-22T14:07:28.118Z,33.50
2022-08-22T14:10:14.937Z,35.44
2022-08-22T14:13:18.900Z,35.73
2022-08-22T14:16:00.064Z,35.61
2022-08-22T14:18:45.667Z,34.44
2022-08-22T14:21:36.958Z,35.69
2022-08-22T14:24:19.917Z,35.79
2022-08-22T14:26:58.391Z,34.14
2022-08-22T14:29:35.080Z,34.42
2022-08-22T14:32:35.385Z,35.60
2022-08-22T14:35:23.063Z,35.63
2022-08-22T14:38:17.988Z,35.40
2022-08-22T14:40:54.853Z,35.55
2022-08-22T14:43:49.280Z,34.42
2022-08-22T14:46:30.186Z,35.76
2022-08-22T14:49:28.873Z,34.84
2022-08-22T14:52:06.779Z,35.74
2022-08-22T14:54:42.668Z,34.93
2022-08-22T14:57:20.606Z,35.40
2022-08-22T14:59:55.295Z,34.80
2022-08-22T15:02:30.858Z,35.41
2022-08-22T15:05:15.541Z,34.94
2022-08-22T15:07:55.839Z,35.11
2022-08-22T15:10:33.373Z,35.03
2022-08-22T15:13:10.158Z,34.83
2022-08-22T15:15:53.484Z,34.63
2022-08-22T15:18:35.683Z,34.30
2022-08-22T15:21:11.419Z,34.91
2022-08-22T15:23:46.969Z,34.45
2022-08-22T15:26:25.703Z,34.87
2022-08-22T15:29:07.353Z,34.93
2022-08-22T15:31:43.599Z,34.33
2022-08-22T15:34:25.742Z,31.97
2022-08-22T15:37:29.505Z,34.63
2022-08-22T15:40:12.673Z,34.33
2022-08-22T15:42:48.573Z,32.43
2022-08-22T15:45:33.703Z,32.97
2022-08-22T15:48:13.773Z,31.29
2022-08-22T15:51:03.604Z,32.75
2022-08-22T15:54:02.673Z,32.20
2022-08-22T15:57:14.211Z,33.70
2022-08-22T15:59:58.452Z,33.84
2022-08-22T16:02:35.497Z,32.27
2022-08-22T16:05:26.316Z,32.03
2022-08-22T16:08:05.947Z,32.19
2022-08-22T16:10:42.568Z,33.10
2022-08-22T16:13:38.282Z,32.48
2022-08-22T16:16:34.077Z,32.02
2022-08-22T16:19:20.262Z,32.86
2022-08-22T16:22:10.629Z,33.03
2022-08-22T16:25:03.851Z,32.13
2022-08-22T16:27:38.178Z,32.95
2022-08-22T16:30:16.280Z,32.51
2022-08-22T16:32:57.243Z,30.89
2022-08-22T16:36:22.117Z,31.82
2022-08-22T16:38:58.380Z,32.23
2022-08-22T16:41:35.817Z,32.71
2022-08-22T16:44:34.395Z,32.46
2022-08-22T16:47:12.784Z,32.85
2022-08-22T16:50:00.131Z,32.56
2022-08-22T16:52:57.596Z,32.85
2022-08-22T16:55:47.574Z,33.14
2022-08-22T16:59:01.080Z,31.88
2022-08-22T17:01:56.785Z,33.03
2022-08-22T17:04:41.032Z,33.09
2022-08-22T17:07:26.550Z,33.47
2022-08-22T17:10:12.432Z,33.60
2022-08-22T17:13:16.369Z,33.28
2022-08-22T17:16:03.197Z,33.85
2022-08-22T17:18:49.383Z,32.92
2022-08-22T17:21:26.681Z,33.31
2022-08-22T17:24:06.466Z,33.52
2022-08-22T17:26:53.205Z,33.56
2022-08-22T17:29:40.740Z,34.15
2022-08-22T17:32:21.964Z,33.24
2022-08-22T17:35:05.169Z,33.49
2022-08-22T17:37:52.828Z,34.15
2022-08-22T17:40:39.024Z,33.43
2022-08-22T17:43:27.409Z,34.46
2022-08-22T17:46:20.543Z,34.81
2022-08-22T17:49:00.575Z,34.71
2022-08-22T17:51:41.339Z,35.04
2022-08-22T17:54:18.896Z,34.61
2022-08-22T17:57:03.221Z,35.09
2022-08-22T17:59:48.361Z,35.29
2022-08-22T18:02:28.049Z,35.19
2022-08-22T18:05:07.921Z,35.21
2022-08-22T18:07:56.137Z,35.46
2022-08-22T18:10:38.945Z,35.33
2022-08-22T18:13:13.170Z,35.79
2022-08-22T18:15:51.582Z,35.79
2022-08-22T18:18:31.716Z,35.56
2022-08-22T18:21:10.946Z,35.98
2022-08-22T18:23:46.276Z,36.17
2022-08-22T18:26:28.390Z,36.25
2022-08-22T18:29:09.820Z,35.95
2022-08-22T18:31:51.015Z,36.36
2022-08-22T18:34:34.174Z,36.57
2022-08-22T18:37:41.387Z,37.10
2022-08-22T18:40:26.520Z,36.60
2022-08-22T18:43:14.099Z,37.11
2022-08-22T18:46:03.514Z,37.10
2022-08-22T18:48:49.793Z,37.22
2022-08-22T18:51:38.271Z,37.14
2022-08-22T18:54:34.930Z,37.86
2022-08-22T18:57:30.404Z,37.79
2022-08-22T19:00:12.677Z,37.92
2022-08-22T19:03:08.762Z,38.15
2022-08-22T19:05:52.051Z,37.79
2022-08-22T19:08:53.420Z,38.23
2022-08-22T19:11:40.991Z,38.23
2022-08-22T19:14:28.896Z,38.51
2022-08-22T19:17:44.640Z,38.61
2022-08-22T19:20:51.623Z,38.83
2022-08-22T19:23:47.915Z,38.88
2022-08-22T19:26:30.435Z,39.32
2022-08-22T19:29:10.775Z,39.42
2022-08-22T19:31:50.458Z,39.25
2022-08-22T19:34:39.665Z,39.39
2022-08-22T19:37:33.201Z,39.49
2022-08-22T19:40:10.414Z,39.91
2022-08-22T19:42:46.791Z,39.78
2022-08-22T19:45:25.577Z,40.03
2022-08-22T19:48:02.209Z,39.77
2022-08-22T19:50:38.516Z,40.19
2022-08-22T19:53:28.293Z,40.02
2022-08-22T19:56:20.750Z,40.12
2022-08-22T19:59:07.227Z,40.47
2022-08-22T20:01:56.183Z,40.43
2022-08-22T20:04:44.074Z,40.56
2022-08-22T20:07:29.284Z,40.77
2022-08-22T20:10:17.952Z,40.35
2022-08-22T20:13:04.303Z,40.79
2022-08-22T20:16:02.585Z,40.39
2022-08-22T20:19:05.031Z,41.24
2022-08-22T20:21:46.048Z,40.83
2022-08-22T20:24:24.502Z,41.10
2022-08-22T20:27:15.654Z,41.50
2022-08-22T20:29:56.413Z,41.05
2022-08-22T20:32:30.904Z,41.42
2022-08-22T20:35:05.945Z,41.36
2022-08-22T20:40:55.096Z,41.64
2022-08-22T20:43:36.402Z,41.46
2022-08-22T20:46:24.349Z,41.67
2022-08-22T20:48:57.595Z,41.17
2022-08-22T20:51:33.499Z,41.63
2022-08-22T20:54:17.746Z,41.84
2022-08-22T20:56:53.952Z,41.59
2022-08-22T20:59:30.899Z,41.31
2022-08-22T21:02:15.610Z,41.47
2022-08-22T21:04:54.126Z,41.90
2022-08-22T21:07:30.411Z,42.02
2022-08-22T21:10:24.179Z,41.72
2022-08-22T21:13:24.383Z,42.24
2022-08-22T21:15:59.784Z,41.91
2022-08-22T21:18:36.883Z,42.27
2022-08-22T21:21:12.739Z,42.27
2022-08-22T21:23:56.373Z,42.78
2022-08-22T21:26:37.038Z,42.24
2022-08-22T21:29:22.255Z,42.65
2022-08-22T21:32:04.310Z,42.28
2022-08-22T21:34:44.524Z,42.62
2022-08-22T21:37:23.650Z,42.51
2022-08-22T21:40:01.950Z,42.50
2022-08-22T21:42:37.343Z,43.00
2022-08-22T21:45:14.085Z,43.03
2022-08-22T21:47:46.841Z,42.90
2022-08-22T21:50:37.857Z,42.97
2022-08-22T21:53:13.115Z,43.00
2022-08-22T21:55:47.973Z,43.02
2022-08-22T21:58:36.606Z,43.09
2022-08-22T22:01:31.665Z,43.86
2022-08-22T22:04:05.025Z,43.29
2022-08-22T22:06:39.063Z,43.31
2022-08-22T22:09:15.163Z,43.82
2022-08-22T22:11:48.122Z,43.60
2022-08-22T22:14:21.007Z,43.08
2022-08-22T22:16:53.703Z,43.27
2022-08-22T22:19:26.425Z,44.00
2022-08-22T22:22:00.453Z,43.83
2022-08-22T22:24:33.268Z,44.02
2022-08-22T22:27:06.657Z,43.86
2022-08-22T22:29:39.704Z,43.75
2022-08-22T22:32:12.445Z,43.72
2022-08-22T22:34:45.079Z,43.73
2022-08-22T22:37:19.617Z,44.23
2022-08-22T22:39:52.440Z,44.17
2022-08-22T22:42:25.137Z,44.20
2022-08-22T22:44:58.069Z,44.60
2022-08-22T22:47:31.696Z,44.35
2022-08-22T22:50:05.600Z,44.07
2022-08-22T22:52:40.873Z,44.49
2022-08-22T22:55:24.969Z,44.27
2022-08-22T22:58:01.028Z,44.42
2022-08-22T23:00:36.287Z,44.64
2022-08-22T23:03:09.785Z,44.82
2022-08-22T23:05:42.983Z,44.48
2022-08-22T23:08:17.083Z,44.61
2022-08-22T23:10:49.933Z,44.95
2022-08-22T23:13:22.726Z,45.25
2022-08-22T23:15:55.532Z,44.62
2022-08-22T23:18:30.799Z,44.76
2022-08-22T23:21:13.006Z,45.13
2022-08-22T23:23:48.073Z,45.15
2022-08-22T23:26:20.785Z,45.26
2022-08-22T23:28:53.566Z,44.99
2022-08-22T23:31:37.951Z,45.18
2022-08-22T23:34:13.954Z,45.46
2022-08-22T23:36:48.652Z,45.33
2022-08-22T23:39:24.466Z,45.58
2022-08-22T23:41:58.306Z,45.19
2022-08-22T23:44:33.050Z,45.63
2022-08-22T23:47:07.752Z,45.44
2022-08-22T23:49:41.900Z,45.71
2022-08-22T23:52:15.305Z,45.65
2022-08-22T23:54:54.293Z,45.59
2022-08-22T23:57:29.448Z,45.37
